Time;durP1;ratioP1;P1;durP2;ratioP2;P2;SDS_P1;SDS_P2;PMS_P1;PMS_P2;Temp;Humidity;BMP_temperature;BMP_pressure;BME280_temperature;BME280_humidity;BME280_pressure;Samples;Min_cycle;Max_cycle;Signal;HPM_P1;HPM_P2
2023/04/13 00:02:03;;;;;;;4.43;1.60;;;7.30;99.90;;;;;;5006270;28;20080;-57
2023/04/13 00:04:32;;;;;;;4.55;1.90;;;7.30;99.90;;;;;;5002857;28;20049;-55
2023/04/13 00:07:04;;;;;;;4.95;1.73;;;7.30;99.90;;;;;;5006162;28;20092;-58
2023/04/13 00:09:36;;;;;;;3.53;1.40;;;7.40;99.90;;;;;;5002175;28;20397;-57
2023/04/13 00:12:02;;;;;;;4.85;1.58;;;7.40;99.90;;;;;;5006697;28;20089;-57
2023/04/13 00:14:36;;;;;;;4.65;1.70;;;7.40;99.90;;;;;;5005298;28;20050;-56
2023/04/13 00:17:02;;;;;;;4.25;1.85;;;7.50;99.90;;;;;;5004842;28;20029;-58
2023/04/13 00:19:27;;;;;;;5.05;1.80;;;7.50;99.90;;;;;;5009418;28;20568;-57
2023/04/13 00:21:53;;;;;;;2.65;1.50;;;7.50;99.90;;;;;;5009026;28;20082;-59
2023/04/13 00:24:19;;;;;;;3.20;1.50;;;7.50;99.90;;;;;;5009370;28;20444;-58
2023/04/13 00:26:46;;;;;;;5.15;1.88;;;7.50;99.90;;;;;;5005257;28;20053;-59
2023/04/13 00:29:12;;;;;;;5.65;1.58;;;7.50;99.90;;;;;;5007977;28;20042;-58
2023/04/13 00:31:38;;;;;;;2.72;1.33;;;7.40;99.90;;;;;;5007568;28;20045;-57
2023/04/13 00:34:05;;;;;;;5.30;1.60;;;7.30;99.90;;;;;;5006751;28;20038;-58
2023/04/13 00:36:31;;;;;;;3.10;1.55;;;7.20;99.90;;;;;;4989504;28;20046;-58
2023/04/13 00:38:57;;;;;;;4.95;1.60;;;7.20;99.90;;;;;;5003693;28;20046;-57
2023/04/13 00:41:28;;;;;;;5.47;1.83;;;7.20;99.90;;;;;;5006386;28;20111;-56
2023/04/13 00:43:54;;;;;;;4.05;1.40;;;7.10;99.90;;;;;;5004074;28;20049;-57
2023/04/13 00:46:21;;;;;;;3.08;1.40;;;7.10;99.90;;;;;;5003149;28;20049;-57
2023/04/13 00:48:47;;;;;;;8.57;1.83;;;7.10;99.90;;;;;;5008452;28;20045;-57
2023/04/13 00:51:16;;;;;;;3.38;1.10;;;7.10;99.90;;;;;;5005752;28;20037;-57
2023/04/13 00:53:45;;;;;;;3.08;1.40;;;7.00;99.90;;;;;;5006800;28;20041;-57
2023/04/13 00:56:12;;;;;;;2.45;1.40;;;7.00;99.90;;;;;;5003703;28;20720;-56
2023/04/13 00:58:38;;;;;;;4.60;1.83;;;6.90;99.90;;;;;;4999686;28;20045;-58
2023/04/13 01:01:03;;;;;;;2.63;1.10;;;6.90;99.90;;;;;;4998972;28;20103;-57
2023/04/13 01:03:32;;;;;;;3.63;1.27;;;6.90;99.90;;;;;;5001240;28;20081;-56
2023/04/13 01:06:10;;;;;;;4.13;1.25;;;6.90;99.90;;;;;;5004404;28;20405;-57
2023/04/13 01:08:45;;;;;;;2.05;1.30;;;6.90;99.90;;;;;;5003090;28;20045;-58
2023/04/13 01:11:25;;;;;;;3.03;1.15;;;6.90;99.90;;;;;;5001920;28;20056;-58
2023/04/13 01:14:06;;;;;;;1.85;1.10;;;6.90;99.90;;;;;;5006673;28;20038;-57
2023/04/13 01:16:41;;;;;;;3.20;1.30;;;6.90;99.90;;;;;;5003842;28;20048;-58
2023/04/13 01:19:14;;;;;;;2.30;1.08;;;6.80;99.90;;;;;;5002461;28;20042;-58
2023/04/13 01:21:41;;;;;;;3.92;1.20;;;6.80;99.90;;;;;;5008046;28;20054;-57
2023/04/13 01:24:31;;;;;;;4.25;1.23;;;6.80;99.90;;;;;;5005408;28;20053;-58
2023/04/13 01:27:11;;;;;;;3.72;1.45;;;6.90;99.90;;;;;;5004328;28;20042;-58
2023/04/13 01:29:38;;;;;;;3.28;1.20;;;6.80;99.90;;;;;;5000390;28;20643;-58
2023/04/13 01:32:05;;;;;;;2.35;1.40;;;6.80;99.90;;;;;;5005135;28;20030;-57
2023/04/13 01:34:32;;;;;;;4.30;1.25;;;6.70;99.90;;;;;;5003523;28;20088;-56
2023/04/13 01:36:58;;;;;;;3.83;1.30;;;6.80;99.90;;;;;;5004085;28;20042;-56
2023/04/13 01:39:30;;;;;;;3.55;1.35;;;6.70;99.90;;;;;;5007410;28;20382;-56
2023/04/13 01:41:56;;;;;;;5.70;1.48;;;6.80;99.90;;;;;;5007540;28;20049;-56
2023/04/13 01:44:22;;;;;;;4.80;1.50;;;6.70;99.90;;;;;;5007010;28;20444;-58
2023/04/13 01:46:53;;;;;;;3.45;1.30;;;6.70;99.90;;;;;;5010468;28;20489;-58
2023/04/13 01:49:22;;;;;;;2.63;1.50;;;6.70;99.90;;;;;;5010920;28;20045;-59
2023/04/13 01:51:50;;;;;;;2.45;1.20;;;6.70;99.90;;;;;;5008110;28;20037;-59
2023/04/13 01:54:22;;;;;;;3.88;1.40;;;6.70;99.90;;;;;;5009578;28;20414;-58
2023/04/13 01:56:49;;;;;;;2.28;1.42;;;6.80;99.90;;;;;;5010202;28;20045;-55
2023/04/13 01:59:21;;;;;;;2.83;1.40;;;6.80;99.90;;;;;;5009202;28;20049;-56
2023/04/13 02:01:47;;;;;;;4.22;1.63;;;6.80;99.90;;;;;;5008160;28;20061;-58
2023/04/13 02:04:13;;;;;;;5.00;1.50;;;6.70;99.90;;;;;;4997744;28;20111;-59
2023/04/13 02:06:39;;;;;;;5.65;1.77;;;6.80;99.90;;;;;;5009576;28;20061;-59
2023/04/13 02:09:05;;;;;;;3.72;1.65;;;6.80;99.90;;;;;;5006849;28;20456;-56
2023/04/13 02:11:32;;;;;;;3.95;1.95;;;6.80;99.90;;;;;;5024986;28;20121;-59
2023/04/13 02:13:58;;;;;;;4.13;1.63;;;6.80;99.90;;;;;;4989782;28;20065;-57
2023/04/13 02:16:24;;;;;;;3.30;1.60;;;6.80;99.90;;;;;;5007125;28;20529;-58
2023/04/13 02:18:50;;;;;;;3.38;1.42;;;6.80;99.90;;;;;;5010632;28;20095;-59
2023/04/13 02:21:16;;;;;;;3.28;1.60;;;6.80;99.90;;;;;;5008223;28;20432;-59
2023/04/13 02:23:42;;;;;;;2.92;1.63;;;6.80;99.90;;;;;;5011022;28;20491;-57
2023/04/13 02:26:11;;;;;;;6.50;2.15;;;6.80;99.90;;;;;;5007216;28;20121;-57
2023/04/13 02:28:39;;;;;;;4.38;1.65;;;6.80;99.90;;;;;;5009375;28;20096;-59
2023/04/13 02:31:05;;;;;;;3.33;1.70;;;6.80;99.90;;;;;;5010671;28;20046;-56
2023/04/13 02:33:32;;;;;;;3.90;1.83;;;6.80;99.90;;;;;;5007554;28;20029;-57
2023/04/13 02:35:58;;;;;;;4.85;1.90;;;6.80;99.90;;;;;;5000303;28;20038;-57
2023/04/13 02:38:29;;;;;;;3.58;1.70;;;6.80;99.90;;;;;;5011379;28;20037;-61
2023/04/13 02:40:58;;;;;;;3.10;1.60;;;6.80;99.90;;;;;;5009586;28;20077;-58
2023/04/13 02:43:25;;;;;;;3.15;1.50;;;6.80;99.90;;;;;;5007473;28;20054;-57
2023/04/13 02:45:51;;;;;;;4.20;2.10;;;6.80;99.90;;;;;;5004241;28;20116;-58
2023/04/13 02:48:18;;;;;;;5.03;1.88;;;6.80;99.90;;;;;;5007519;28;20544;-56
2023/04/13 02:50:45;;;;;;;6.28;1.80;;;6.80;99.90;;;;;;5010408;28;20041;-55
2023/04/13 02:53:15;;;;;;;2.53;1.50;;;6.80;99.90;;;;;;5010220;28;20041;-59
2023/04/13 02:55:41;;;;;;;3.80;1.50;;;6.90;99.90;;;;;;5008070;28;20034;-60
2023/04/13 02:58:08;;;;;;;4.60;1.73;;;6.90;99.90;;;;;;5004209;28;20046;-55
2023/04/13 03:00:33;;;;;;;5.63;2.53;;;6.90;99.90;;;;;;5014403;28;20695;-57
2023/04/13 03:03:05;;;;;;;4.28;2.15;;;6.80;99.90;;;;;;5008451;28;20366;-56
2023/04/13 03:05:31;;;;;;;5.90;2.05;;;6.90;99.90;;;;;;5007658;28;20099;-55
2023/04/13 03:07:58;;;;;;;3.33;1.50;;;6.90;99.90;;;;;;5009330;28;20073;-58
2023/04/13 03:10:24;;;;;;;4.43;2.15;;;6.90;99.90;;;;;;5004892;28;20046;-58
2023/04/13 03:12:52;;;;;;;3.75;1.90;;;6.90;99.90;;;;;;5008487;28;20514;-57
2023/04/13 03:15:18;;;;;;;5.00;1.95;;;6.90;99.90;;;;;;5007402;28;20030;-57
2023/04/13 03:17:44;;;;;;;3.08;1.80;;;6.90;99.90;;;;;;5006361;28;20030;-59
2023/04/13 03:20:12;;;;;;;3.40;1.85;;;6.90;99.90;;;;;;5006075;28;20045;-59
2023/04/13 03:22:38;;;;;;;3.60;1.55;;;6.90;99.90;;;;;;5007282;28;20057;-56
2023/04/13 03:25:06;;;;;;;3.35;1.70;;;6.90;99.90;;;;;;5004906;28;20053;-59
2023/04/13 03:27:31;;;;;;;3.13;1.70;;;6.90;99.90;;;;;;5007710;28;20532;-60
2023/04/13 03:29:57;;;;;;;4.15;1.65;;;6.90;99.90;;;;;;5009550;28;20034;-60
2023/04/13 03:32:23;;;;;;;3.08;2.20;;;6.90;99.90;;;;;;4991470;28;20092;-58
2023/04/13 03:34:49;;;;;;;3.33;1.83;;;6.90;99.90;;;;;;5003503;28;20041;-60
2023/04/13 03:37:14;;;;;;;2.45;1.85;;;6.90;99.90;;;;;;5006667;28;20040;-56
2023/04/13 03:39:43;;;;;;;3.83;2.00;;;6.90;99.90;;;;;;5007558;28;20034;-57
2023/04/13 03:42:09;;;;;;;4.93;2.00;;;6.90;99.90;;;;;;5008636;28;20485;-59
2023/04/13 03:44:35;;;;;;;5.05;2.05;;;6.90;99.90;;;;;;5006962;28;20046;-59
2023/04/13 03:47:00;;;;;;;4.32;2.00;;;6.90;99.90;;;;;;5008700;28;20045;-58
2023/04/13 03:49:26;;;;;;;3.10;2.03;;;6.90;99.90;;;;;;5004976;28;20046;-59
2023/04/13 03:51:52;;;;;;;4.50;2.00;;;6.90;99.90;;;;;;5009295;28;20042;-59
2023/04/13 03:54:18;;;;;;;2.80;1.50;;;6.90;99.90;;;;;;5004222;28;20437;-59
2023/04/13 03:56:44;;;;;;;2.80;1.40;;;6.80;99.90;;;;;;5010514;28;20117;-59
2023/04/13 03:59:10;;;;;;;1.88;1.23;;;6.80;99.90;;;;;;5010525;28;20044;-60
2023/04/13 04:01:36;;;;;;;4.63;1.30;;;6.80;99.90;;;;;;5008052;28;20692;-59
2023/04/13 04:04:02;;;;;;;3.30;1.58;;;6.70;99.90;;;;;;5003788;28;20046;-59
2023/04/13 04:06:28;;;;;;;4.07;1.85;;;6.70;99.90;;;;;;5007328;28;20501;-59
2023/04/13 04:08:54;;;;;;;2.10;1.30;;;6.70;99.90;;;;;;4992513;28;20428;-59
2023/04/13 04:11:21;;;;;;;4.20;1.50;;;6.70;99.90;;;;;;5007174;28;20038;-57
2023/04/13 04:13:47;;;;;;;6.32;2.13;;;6.70;99.90;;;;;;5002365;28;20065;-60
2023/04/13 04:16:12;;;;;;;2.45;1.70;;;6.70;99.90;;;;;;4979039;28;20038;-59
2023/04/13 04:18:38;;;;;;;3.10;1.30;;;6.60;99.90;;;;;;4997077;28;20612;-59
2023/04/13 04:21:05;;;;;;;3.75;1.52;;;6.60;99.90;;;;;;5005230;28;20537;-58
2023/04/13 04:23:33;;;;;;;2.38;1.35;;;6.60;99.90;;;;;;5002994;28;20078;-58
2023/04/13 04:26:01;;;;;;;3.03;1.40;;;6.60;99.90;;;;;;5007384;28;20571;-59
2023/04/13 04:28:37;;;;;;;5.28;1.55;;;6.50;99.90;;;;;;5005019;28;20488;-57
2023/04/13 04:31:09;;;;;;;5.28;1.50;;;6.40;99.90;;;;;;5006135;28;20050;-59
2023/04/13 04:33:37;;;;;;;5.35;1.42;;;6.50;99.90;;;;;;5004159;28;20042;-59
2023/04/13 04:36:07;;;;;;;3.20;1.50;;;6.60;99.90;;;;;;4997864;28;20038;-60
2023/04/13 04:38:32;;;;;;;4.45;1.67;;;6.60;99.90;;;;;;4996946;28;20623;-59
2023/04/13 04:41:00;;;;;;;5.35;1.40;;;6.60;99.90;;;;;;4990414;28;20080;-58
2023/04/13 04:43:29;;;;;;;6.47;1.70;;;6.60;99.90;;;;;;5004481;28;20042;-57
2023/04/13 04:45:58;;;;;;;3.20;1.85;;;6.50;99.90;;;;;;5002948;28;20037;-58
2023/04/13 04:48:30;;;;;;;4.57;1.77;;;6.60;99.90;;;;;;5007030;28;20049;-58
2023/04/13 04:50:56;;;;;;;6.03;1.52;;;6.60;99.90;;;;;;5003904;28;20505;-58
2023/04/13 04:53:23;;;;;;;5.57;1.73;;;6.50;99.90;;;;;;5006304;28;20092;-58
2023/04/13 04:55:49;;;;;;;5.93;1.80;;;6.50;99.90;;;;;;5006980;28;20040;-55
2023/04/13 04:58:15;;;;;;;5.78;1.77;;;6.50;99.90;;;;;;5008022;28;20046;-59
2023/04/13 05:00:41;;;;;;;8.82;2.10;;;6.50;99.90;;;;;;5011443;28;20135;-57
2023/04/13 05:03:10;;;;;;;5.53;2.08;;;6.50;99.90;;;;;;5004200;28;20660;-59
2023/04/13 05:05:36;;;;;;;5.88;2.05;;;6.40;99.90;;;;;;5008412;28;20113;-59
2023/04/13 05:08:02;;;;;;;7.72;2.33;;;6.40;99.90;;;;;;5006566;28;20120;-59
2023/04/13 05:10:28;;;;;;;4.90;1.70;;;6.40;99.90;;;;;;5007196;28;20121;-58
2023/04/13 05:12:55;;;;;;;9.10;1.92;;;6.40;99.90;;;;;;5006436;28;20070;-59
2023/04/13 05:15:21;;;;;;;6.90;2.20;;;6.40;99.90;;;;;;4989344;28;20046;-60
2023/04/13 05:17:49;;;;;;;10.40;2.40;;;6.50;99.90;;;;;;5005130;28;20386;-59
2023/04/13 05:20:14;;;;;;;5.40;1.77;;;6.40;99.90;;;;;;5003413;28;20050;-58
2023/04/13 05:22:41;;;;;;;6.53;2.08;;;6.50;99.90;;;;;;5004987;28;20045;-59
2023/04/13 05:25:08;;;;;;;6.90;2.80;;;6.50;99.90;;;;;;5007577;28;20042;-59
2023/04/13 05:27:34;;;;;;;5.85;2.40;;;6.50;99.90;;;;;;5005208;28;20050;-59
2023/04/13 05:30:00;;;;;;;4.72;2.10;;;6.50;99.90;;;;;;5006608;28;20125;-57
2023/04/13 05:32:26;;;;;;;4.28;1.92;;;6.60;99.90;;;;;;5002387;28;20137;-59
2023/04/13 05:34:51;;;;;;;5.15;2.03;;;6.70;99.90;;;;;;5006778;28;20030;-58
2023/04/13 05:37:17;;;;;;;7.75;2.40;;;6.60;99.90;;;;;;5005536;28;20103;-57
2023/04/13 05:39:44;;;;;;;6.35;2.45;;;6.60;99.90;;;;;;5004801;28;20038;-59
2023/04/13 05:42:10;;;;;;;5.57;2.45;;;6.70;99.90;;;;;;5002146;28;20042;-60
2023/04/13 05:44:36;;;;;;;5.80;1.92;;;6.80;99.90;;;;;;5001119;28;20533;-60
2023/04/13 05:47:02;;;;;;;7.82;2.40;;;6.80;99.90;;;;;;5003225;28;20045;-60
2023/04/13 05:49:28;;;;;;;9.75;1.83;;;6.90;99.90;;;;;;5004349;28;20651;-58
2023/04/13 05:51:53;;;;;;;10.23;1.88;;;6.90;99.90;;;;;;5005499;28;20091;-59
2023/04/13 05:54:19;;;;;;;13.63;2.42;;;7.10;99.90;;;;;;5007176;28;20046;-59
2023/04/13 05:56:46;;;;;;;8.30;2.38;;;7.10;99.90;;;;;;5007089;28;20036;-59
2023/04/13 05:59:15;;;;;;;8.95;2.67;;;7.20;99.90;;;;;;5007003;28;20046;-59
2023/04/13 06:01:40;;;;;;;8.43;1.67;;;7.20;99.90;;;;;;4988627;28;20418;-59
2023/04/13 06:04:11;;;;;;;5.60;1.92;;;7.20;99.90;;;;;;5006882;28;20044;-59
2023/04/13 06:06:37;;;;;;;6.03;1.90;;;7.20;99.90;;;;;;5003806;28;20041;-59
2023/04/13 06:09:04;;;;;;;6.53;2.53;;;7.20;99.90;;;;;;5005126;28;20037;-59
2023/04/13 06:11:30;;;;;;;6.90;1.77;;;7.20;99.90;;;;;;5006135;28;20666;-59
2023/04/13 06:13:56;;;;;;;6.53;1.90;;;7.20;99.90;;;;;;5007335;28;20117;-59
2023/04/13 06:16:24;;;;;;;3.28;1.40;;;7.20;99.90;;;;;;5006318;28;20042;-59
2023/04/13 06:18:50;;;;;;;4.20;1.98;;;7.20;99.90;;;;;;5005470;28;20041;-60
2023/04/13 06:21:19;;;;;;;9.63;3.00;;;7.30;99.90;;;;;;5007270;28;20037;-59
2023/04/13 06:23:45;;;;;;;6.25;2.00;;;7.40;99.90;;;;;;5004534;28;20056;-58
2023/04/13 06:26:11;;;;;;;8.30;2.10;;;7.40;99.90;;;;;;5005566;28;20610;-60
2023/04/13 06:28:36;;;;;;;7.55;2.50;;;7.50;99.90;;;;;;5006242;28;20058;-59
2023/04/13 06:31:02;;;;;;;8.10;2.03;;;7.50;99.90;;;;;;5008790;28;20038;-59
2023/04/13 06:33:31;;;;;;;8.25;2.53;;;7.50;99.90;;;;;;5005878;28;20037;-59
2023/04/13 06:35:56;;;;;;;12.90;3.72;;;7.60;99.90;;;;;;5006523;28;20030;-59
2023/04/13 06:38:22;;;;;;;8.82;2.72;;;7.60;99.90;;;;;;5008989;28;20044;-59
2023/04/13 06:40:48;;;;;;;7.82;3.03;;;7.70;99.90;;;;;;5005686;28;20477;-60
2023/04/13 06:43:13;;;;;;;9.70;3.08;;;7.80;99.90;;;;;;4995922;28;20120;-59
2023/04/13 06:45:39;;;;;;;8.30;2.75;;;8.00;99.90;;;;;;4996346;28;20046;-59
2023/04/13 06:48:05;;;;;;;10.30;2.88;;;8.10;99.90;;;;;;5001722;28;20488;-59
2023/04/13 06:50:31;;;;;;;7.18;2.22;;;8.20;99.90;;;;;;5005270;28;20073;-60
2023/04/13 06:52:57;;;;;;;14.43;2.33;;;8.30;99.90;;;;;;5004601;28;20081;-59
2023/04/13 06:55:25;;;;;;;9.35;2.60;;;8.40;99.90;;;;;;4991024;28;20072;-59
2023/04/13 06:57:51;;;;;;;5.70;2.22;;;8.40;99.90;;;;;;5005549;28;20037;-60
2023/04/13 07:00:17;;;;;;;10.27;2.78;;;8.50;99.90;;;;;;5006162;28;20046;-60
2023/04/13 07:02:43;;;;;;;6.75;2.30;;;8.50;99.90;;;;;;5001345;28;20077;-58
2023/04/13 07:05:10;;;;;;;9.15;2.20;;;8.50;99.90;;;;;;5004932;28;20814;-59
2023/04/13 07:07:36;;;;;;;7.05;2.22;;;8.60;99.90;;;;;;5004647;28;20465;-60
2023/04/13 07:10:02;;;;;;;6.45;1.98;;;8.70;99.90;;;;;;5007894;28;20148;-60
2023/04/13 07:12:27;;;;;;;9.65;3.05;;;8.60;99.90;;;;;;5009453;28;20788;-58
2023/04/13 07:14:53;;;;;;;6.93;2.10;;;8.60;99.90;;;;;;5010518;28;20129;-59
2023/04/13 07:17:19;;;;;;;5.93;2.65;;;8.60;99.90;;;;;;5005216;28;20071;-59
2023/04/13 07:19:46;;;;;;;8.73;1.77;;;8.70;99.90;;;;;;5000981;28;20056;-59
2023/04/13 07:22:12;;;;;;;6.00;1.60;;;8.70;99.90;;;;;;5009923;28;20390;-60
2023/04/13 07:24:38;;;;;;;6.82;1.27;;;8.60;99.90;;;;;;5023003;28;20060;-57
2023/04/13 07:27:04;;;;;;;12.70;1.70;;;8.60;99.90;;;;;;5008389;28;20064;-60
2023/04/13 07:29:30;;;;;;;7.25;1.40;;;8.60;99.90;;;;;;5008850;28;20057;-59
2023/04/13 07:32:03;;;;;;;5.28;1.60;;;8.60;99.90;;;;;;5008251;28;20065;-59
2023/04/13 07:34:29;;;;;;;4.67;1.40;;;8.60;99.90;;;;;;5005310;28;20261;-60
2023/04/13 07:36:55;;;;;;;5.40;1.30;;;8.60;99.90;;;;;;5006963;28;20037;-59
2023/04/13 07:39:21;;;;;;;4.88;1.45;;;8.60;99.90;;;;;;4995293;28;20054;-58
2023/04/13 07:41:47;;;;;;;7.22;1.45;;;8.60;99.90;;;;;;5001775;28;20553;-57
2023/04/13 07:44:16;;;;;;;3.85;1.30;;;8.70;99.90;;;;;;4987593;28;20509;-59
2023/04/13 07:46:42;;;;;;;6.22;1.38;;;8.80;99.90;;;;;;5005855;28;20073;-58
2023/04/13 07:49:08;;;;;;;3.45;1.25;;;8.80;99.90;;;;;;5006495;28;20039;-58
2023/04/13 07:51:34;;;;;;;11.57;2.20;;;8.90;99.90;;;;;;5006221;28;20042;-59
2023/04/13 07:54:01;;;;;;;5.20;1.70;;;9.00;99.90;;;;;;5006323;28;20851;-59
2023/04/13 07:56:30;;;;;;;7.03;2.00;;;9.00;99.90;;;;;;5009198;28;20355;-59
2023/04/13 07:58:55;;;;;;;4.90;1.70;;;9.00;99.90;;;;;;5007936;28;20421;-58
2023/04/13 08:01:25;;;;;;;6.57;1.45;;;9.00;99.90;;;;;;5008998;28;20652;-60
2023/04/13 08:03:50;;;;;;;6.80;2.63;;;8.90;99.90;;;;;;5002223;28;20038;-59
2023/04/13 08:06:19;;;;;;;5.47;1.35;;;8.90;99.90;;;;;;5008963;28;20034;-58
2023/04/13 08:08:46;;;;;;;6.07;0.90;;;8.80;99.90;;;;;;5005529;28;20050;-60
2023/04/13 08:11:11;;;;;;;8.10;1.33;;;8.80;99.90;;;;;;5003608;28;20038;-59
2023/04/13 08:13:37;;;;;;;5.30;1.13;;;8.80;99.90;;;;;;5008419;28;20401;-58
2023/04/13 08:16:03;;;;;;;4.93;1.05;;;8.80;99.90;;;;;;5009163;28;20440;-59
2023/04/13 08:18:31;;;;;;;6.68;1.25;;;8.80;99.90;;;;;;4985537;28;20049;-60
2023/04/13 08:20:57;;;;;;;5.80;1.30;;;8.80;99.90;;;;;;5010370;28;20077;-59
2023/04/13 08:23:24;;;;;;;5.53;1.63;;;8.70;99.90;;;;;;5008206;28;20490;-58
2023/04/13 08:25:50;;;;;;;8.13;1.30;;;8.70;99.90;;;;;;5002712;28;20124;-59
2023/04/13 08:28:16;;;;;;;3.45;1.20;;;8.70;99.90;;;;;;5001230;28;20760;-58
2023/04/13 08:30:42;;;;;;;7.70;1.50;;;8.70;99.90;;;;;;5005810;28;20642;-58
2023/04/13 08:33:10;;;;;;;5.03;1.60;;;8.70;99.90;;;;;;5002419;28;20148;-57
2023/04/13 08:35:39;;;;;;;7.65;1.88;;;8.70;99.90;;;;;;5004337;28;20121;-59
2023/04/13 08:38:08;;;;;;;7.63;1.38;;;8.80;99.90;;;;;;5007563;28;20117;-60
2023/04/13 08:40:38;;;;;;;7.55;1.02;;;8.80;99.90;;;;;;5008698;28;20100;-59
2023/04/13 08:43:05;;;;;;;6.13;1.40;;;8.80;99.90;;;;;;5006385;28;20117;-57
2023/04/13 08:45:31;;;;;;;2.80;0.95;;;8.80;99.90;;;;;;5004728;28;20045;-58
2023/04/13 08:48:00;;;;;;;5.15;0.98;;;8.70;99.90;;;;;;5002253;28;20060;-59
2023/04/13 08:50:29;;;;;;;7.05;1.30;;;8.60;99.90;;;;;;5005460;28;20041;-58
2023/04/13 08:52:55;;;;;;;2.03;0.65;;;8.60;99.90;;;;;;5001449;28;20074;-59
2023/04/13 08:55:21;;;;;;;1.88;0.80;;;8.60;99.90;;;;;;5006660;28;20076;-58
2023/04/13 08:57:51;;;;;;;3.40;0.95;;;8.60;99.90;;;;;;4999884;28;20130;-59
2023/04/13 09:00:18;;;;;;;1.70;0.60;;;8.50;99.90;;;;;;4996863;28;20049;-58
2023/04/13 09:02:47;;;;;;;3.05;0.70;;;8.40;99.90;;;;;;4997280;28;20046;-59
2023/04/13 09:05:14;;;;;;;4.32;1.15;;;8.40;99.90;;;;;;4996631;28;20416;-59
2023/04/13 09:07:42;;;;;;;2.47;0.65;;;8.50;99.90;;;;;;5003995;28;20173;-59
2023/04/13 09:10:15;;;;;;;3.50;0.70;;;8.60;99.90;;;;;;5004708;28;20046;-60
2023/04/13 09:12:41;;;;;;;2.58;0.60;;;8.80;99.90;;;;;;5001902;28;20041;-57
2023/04/13 09:15:08;;;;;;;5.05;1.15;;;8.90;99.90;;;;;;4997193;28;20042;-59
2023/04/13 09:17:34;;;;;;;4.07;0.98;;;9.00;99.90;;;;;;5001766;28;20038;-55
2023/04/13 09:20:16;;;;;;;5.82;0.90;;;9.00;99.90;;;;;;4997921;28;20429;-58
2023/04/13 09:22:45;;;;;;;4.85;0.82;;;9.00;99.90;;;;;;5000901;28;20053;-59
2023/04/13 09:25:28;;;;;;;4.40;0.98;;;9.00;99.90;;;;;;5002034;28;20124;-60
2023/04/13 09:27:54;;;;;;;4.70;1.05;;;9.10;99.90;;;;;;4997237;28;20045;-57
2023/04/13 09:30:28;;;;;;;6.15;1.15;;;9.20;99.90;;;;;;4999356;28;20057;-59
2023/04/13 09:33:04;;;;;;;6.22;1.00;;;9.30;99.90;;;;;;5003249;28;20048;-58
2023/04/13 09:35:31;;;;;;;4.95;0.88;;;9.30;99.90;;;;;;4998101;28;20040;-60
2023/04/13 09:37:59;;;;;;;2.58;0.40;;;9.30;99.90;;;;;;4988367;28;20042;-59
2023/04/13 09:40:28;;;;;;;2.08;0.43;;;9.30;99.90;;;;;;5000837;28;20137;-58
2023/04/13 09:43:00;;;;;;;392.50;53.10;;;9.20;99.90;;;;;;4993520;28;20117;-58
2023/04/13 09:45:40;;;;;;;17.05;2.17;;;9.10;99.90;;;;;;4994178;28;20553;-57
2023/04/13 09:48:24;;;;;;;3.22;0.50;;;9.00;99.90;;;;;;4994581;28;20041;-57
2023/04/13 09:51:05;;;;;;;2.78;0.57;;;9.20;99.90;;;;;;5000888;28;20042;-56
2023/04/13 09:53:46;;;;;;;3.30;0.60;;;9.30;99.90;;;;;;4984649;28;20042;-58
2023/04/13 09:56:12;;;;;;;2.25;0.73;;;9.50;99.90;;;;;;5001969;28;20481;-58
2023/04/13 09:58:46;;;;;;;2.90;0.63;;;9.60;99.90;;;;;;5004436;28;20115;-58
2023/04/13 10:01:14;;;;;;;8.23;1.80;;;9.70;99.90;;;;;;4998283;28;20039;-58
2023/04/13 10:03:41;;;;;;;1.88;0.65;;;9.80;99.90;;;;;;5003758;28;20046;-56
2023/04/13 10:06:07;;;;;;;3.50;0.77;;;10.10;99.90;;;;;;4997263;28;20049;-57
2023/04/13 10:08:36;;;;;;;4.35;1.20;;;10.30;99.90;;;;;;5007181;28;20045;-58
2023/04/13 10:11:03;;;;;;;8.32;1.75;;;10.30;99.90;;;;;;5011032;28;20061;-58
2023/04/13 10:13:41;;;;;;;6.68;1.58;;;10.10;99.90;;;;;;4997557;28;20050;-58
2023/04/13 10:16:10;;;;;;;4.93;1.20;;;10.00;99.90;;;;;;4994924;28;20116;-57
2023/04/13 10:19:15;;;;;;;6.75;1.58;;;9.90;99.90;;;;;;4999870;28;20050;-58
2023/04/13 10:21:45;;;;;;;;;;;9.70;99.90;;;;;;5002626;28;20440;-58
2023/04/13 10:24:11;;;;;;;7.15;2.03;;;9.60;99.90;;;;;;5008351;28;20391;-58
2023/04/13 10:26:38;;;;;;;7.88;1.88;;;9.50;99.90;;;;;;5006140;28;20044;-58
2023/04/13 10:29:08;;;;;;;6.10;1.52;;;9.30;99.90;;;;;;5005742;28;20048;-58
2023/04/13 10:31:42;;;;;;;6.95;1.30;;;9.20;99.90;;;;;;4998121;28;20497;-57
2023/04/13 10:34:09;;;;;;;6.28;1.85;;;9.10;99.90;;;;;;5003796;28;20080;-58
2023/04/13 10:36:43;;;;;;;3.10;0.60;;;8.90;99.90;;;;;;5002425;28;20058;-58
2023/04/13 10:39:09;;;;;;;1.88;0.55;;;8.30;99.90;;;;;;5003396;28;20134;-57
2023/04/13 10:41:36;;;;;;;1.25;0.30;;;8.20;99.90;;;;;;5002303;28;20069;-57
2023/04/13 10:44:04;;;;;;;2.22;1.27;;;8.20;99.90;;;;;;5005012;28;20042;-57
2023/04/13 10:46:32;;;;;;;5.90;0.90;;;8.30;99.90;;;;;;5004632;28;20113;-56
2023/04/13 10:48:59;;;;;;;6.63;1.27;;;8.50;99.90;;;;;;5002217;28;20052;-58
2023/04/13 10:51:57;;;;;;;9.27;1.73;;;8.70;99.90;;;;;;5004917;28;20026;-57
2023/04/13 10:54:30;;;;;;;7.07;1.73;;;9.00;99.90;;;;;;4982305;28;20049;-58
2023/04/13 10:57:02;;;;;;;13.83;2.63;;;9.10;99.90;;;;;;5006974;28;20105;-58
2023/04/13 10:59:37;;;;;;;9.55;1.42;;;9.20;99.90;;;;;;5006435;28;20477;-57
2023/04/13 11:02:11;;;;;;;9.23;2.75;;;9.20;99.90;;;;;;5002703;28;20042;-58
2023/04/13 11:04:42;;;;;;;7.38;1.73;;;9.30;99.90;;;;;;4996808;28;20046;-57
2023/04/13 11:07:15;;;;;;;15.95;2.80;;;9.40;99.90;;;;;;5003926;28;20037;-58
2023/04/13 11:09:49;;;;;;;11.13;2.95;;;9.40;99.90;;;;;;4998979;28;20497;-58
2023/04/13 11:12:16;;;;;;;15.18;2.88;;;9.50;99.90;;;;;;5004281;28;20044;-58
2023/04/13 11:14:49;;;;;;;8.88;1.77;;;9.40;99.90;;;;;;5002239;28;20037;-58
2023/04/13 11:17:17;;;;;;;12.17;3.00;;;9.20;99.90;;;;;;5004257;28;20176;-58
2023/04/13 11:19:53;;;;;;;6.97;1.15;;;9.10;99.90;;;;;;5003447;28;20642;-58
2023/04/13 11:22:26;;;;;;;3.67;0.93;;;8.90;99.90;;;;;;5001339;28;20050;-57
2023/04/13 11:24:52;;;;;;;9.95;1.80;;;8.80;99.90;;;;;;5006831;28;20041;-57
2023/04/13 11:27:20;;;;;;;7.88;1.40;;;9.00;99.90;;;;;;5017015;28;20049;-56
2023/04/13 11:30:03;;;;;;;9.55;1.80;;;9.10;99.90;;;;;;5001921;28;20116;-58
2023/04/13 11:32:32;;;;;;;7.05;1.65;;;9.50;99.90;;;;;;5004342;28;20038;-58
2023/04/13 11:35:04;;;;;;;16.73;3.67;;;9.60;99.90;;;;;;5006102;28;20562;-58
2023/04/13 11:37:38;;;;;;;12.20;2.42;;;9.70;99.90;;;;;;5002768;28;20081;-58
2023/04/13 11:40:44;;;;;;;12.43;2.60;;;9.80;99.90;;;;;;5004819;28;20034;-57
2023/04/13 11:43:00;;;;;;;13.07;2.35;;;9.90;99.90;;;;;;5000088;28;20468;-59
2023/04/13 11:45:28;;;;;;;9.05;2.30;;;9.80;99.90;;;;;;5000807;28;20046;-57
2023/04/13 11:47:55;;;;;;;9.98;2.22;;;9.90;99.90;;;;;;5002877;28;20072;-59
2023/04/13 11:50:22;;;;;;;13.40;2.38;;;9.90;99.90;;;;;;5004047;28;20042;-59
2023/04/13 11:52:55;;;;;;;16.63;2.92;;;10.00;99.90;;;;;;4996180;28;20032;-58
2023/04/13 11:55:22;;;;;;;13.25;2.58;;;9.90;99.90;;;;;;4998403;28;20490;-58
2023/04/13 11:57:48;;;;;;;9.63;3.03;;;9.80;99.90;;;;;;4998442;28;20109;-58
2023/04/13 12:00:23;;;;;;;12.18;2.53;;;9.90;99.90;;;;;;5000094;28;20064;-59
2023/04/13 12:02:56;;;;;;;19.63;4.28;;;10.00;99.90;;;;;;5004074;28;20401;-59
2023/04/13 12:05:32;;;;;;;14.27;2.80;;;10.10;99.90;;;;;;5007399;28;20042;-59
2023/04/13 12:07:58;;;;;;;13.40;2.88;;;10.20;99.90;;;;;;5004343;28;20100;-57
2023/04/13 12:10:29;;;;;;;11.55;2.60;;;10.30;99.90;;;;;;5000102;28;20683;-58
2023/04/13 12:12:57;;;;;;;8.77;2.35;;;10.20;99.90;;;;;;5002723;28;20049;-59
2023/04/13 12:15:27;;;;;;;13.35;3.25;;;10.20;99.90;;;;;;5002268;28;20177;-58
2023/04/13 12:17:54;;;;;;;14.20;2.50;;;10.10;99.90;;;;;;4997757;28;20045;-58
2023/04/13 12:20:20;;;;;;;16.35;2.67;;;10.10;99.90;;;;;;4997730;28;20076;-59
2023/04/13 12:22:46;;;;;;;14.73;2.38;;;10.00;99.90;;;;;;4977070;28;20045;-58
2023/04/13 12:25:17;;;;;;;19.38;3.33;;;10.00;99.90;;;;;;4995192;28;20137;-58
2023/04/13 12:27:51;;;;;;;17.38;2.58;;;10.10;99.90;;;;;;4996915;28;20192;-59
2023/04/13 12:30:20;;;;;;;14.52;2.00;;;10.00;99.90;;;;;;5001198;28;20049;-59
2023/04/13 12:32:51;;;;;;;14.70;3.10;;;10.10;99.90;;;;;;4995733;28;20033;-59
2023/04/13 12:35:20;;;;;;;12.50;2.45;;;10.10;99.90;;;;;;4999805;28;20045;-59
2023/04/13 12:37:47;;;;;;;11.02;2.10;;;10.00;99.90;;;;;;5002862;28;20050;-59
2023/04/13 12:40:15;;;;;;;10.02;2.63;;;10.20;99.90;;;;;;5005559;28;20045;-59
2023/04/13 12:42:47;;;;;;;15.20;2.35;;;10.30;99.90;;;;;;5003434;28;20142;-59
2023/04/13 12:45:14;;;;;;;11.85;2.08;;;10.30;99.90;;;;;;4996336;28;20057;-58
2023/04/13 12:47:40;;;;;;;11.60;2.30;;;10.50;99.90;;;;;;5006569;28;20493;-59
2023/04/13 12:50:07;;;;;;;9.82;2.80;;;10.40;99.90;;;;;;5002312;28;20045;-59
2023/04/13 12:52:34;;;;;;;14.70;2.72;;;10.50;99.90;;;;;;5002594;28;20117;-58
2023/04/13 12:55:02;;;;;;;14.75;2.78;;;10.50;99.90;;;;;;4999691;28;20370;-59
2023/04/13 12:57:29;;;;;;;13.50;2.20;;;10.50;99.90;;;;;;4997063;28;20045;-58
2023/04/13 12:59:56;;;;;;;13.27;2.38;;;10.50;99.90;;;;;;4998281;28;20042;-59
2023/04/13 13:02:22;;;;;;;10.50;3.05;;;10.40;99.90;;;;;;4996394;28;20041;-59